Fair Haven, Vermont
Current Conditions -  °F | °C
As of 8:35 PM on Friday 19 Dec 2014 (Local Time) from KRUT Reporting Station
Overcast Overcast  
Wind Chill: 13°   Ceiling: 1900
Heat Index: 23°   Visibility: 10mi
Dew Point: 16°   Wind: 9mph
Humidity: 74%   Direction: 320°NW
Pressure: 30.14"   Gusts: NA
Location:  43.6°N, 73.26°W
Report Text: KRUT 200135Z 32008KT 10SM OVC019 M05/M09 A3014 RMK AO1
Loading
Personal Weather Stations






























Interactive Weather Map New forecast layout! Learn more

10-Day Weather Forecast

Advertisements
Track Severe Weather on mobile